createdAt,value
2018-05-21T00:01:47.213Z,1.75
2018-05-21T00:04:14.660Z,2.37
2018-05-21T00:06:42.070Z,3.20
2018-05-21T00:09:09.526Z,2.22
2018-05-21T00:11:36.988Z,4.70
2018-05-21T00:14:04.462Z,3.50
2018-05-21T00:16:31.872Z,2.40
2018-05-21T00:18:59.276Z,3.20
2018-05-21T00:21:26.700Z,3.22
2018-05-21T00:23:54.114Z,8.65
2018-05-21T00:26:21.649Z,5.80
2018-05-21T00:28:49.077Z,4.75
2018-05-21T00:31:16.567Z,3.12
2018-05-21T00:33:43.972Z,3.65
2018-05-21T00:36:11.425Z,4.68
2018-05-21T00:38:38.917Z,5.22
2018-05-21T00:41:06.346Z,1.70
2018-05-21T00:43:33.749Z,4.20
2018-05-21T00:46:01.262Z,3.33
2018-05-21T00:48:28.729Z,2.85
2018-05-21T00:50:56.139Z,2.47
2018-05-21T00:53:23.635Z,1.60
2018-05-21T00:55:51.057Z,6.57
2018-05-21T00:58:18.524Z,3.53
2018-05-21T01:00:45.998Z,2.80
2018-05-21T01:03:13.407Z,1.92
2018-05-21T01:05:40.916Z,2.85
2018-05-21T01:08:08.362Z,2.37
2018-05-21T01:10:35.799Z,2.67
2018-05-21T01:13:03.273Z,2.55
2018-05-21T01:15:30.689Z,3.65
2018-05-21T01:17:58.092Z,3.00
2018-05-21T01:20:25.537Z,4.18
2018-05-21T01:22:52.994Z,1.70
2018-05-21T01:25:20.430Z,1.90
2018-05-21T01:27:47.917Z,4.57
2018-05-21T01:30:15.360Z,1.70
2018-05-21T01:32:42.764Z,1.70
2018-05-21T01:35:10.279Z,2.03
2018-05-21T01:37:37.696Z,1.87
2018-05-21T01:40:05.185Z,3.00
2018-05-21T01:42:32.641Z,2.67
2018-05-21T01:45:00.048Z,2.10
2018-05-21T01:47:27.461Z,3.37
2018-05-21T01:49:54.885Z,2.78
2018-05-21T01:52:22.357Z,6.70
2018-05-21T01:54:49.821Z,3.62
2018-05-21T01:57:17.240Z,3.92
2018-05-21T01:59:44.724Z,3.62
2018-05-21T02:02:12.180Z,5.20
2018-05-21T02:04:39.585Z,2.65
2018-05-21T02:07:06.992Z,1.70
2018-05-21T02:09:34.405Z,2.22
2018-05-21T02:12:01.852Z,1.50
2018-05-21T02:14:29.256Z,2.85
2018-05-21T02:16:56.675Z,2.37
2018-05-21T02:19:24.167Z,1.80
2018-05-21T02:21:51.643Z,4.70
2018-05-21T02:24:19.050Z,2.08
2018-05-21T02:26:46.525Z,2.95
2018-05-21T02:29:13.930Z,1.92
2018-05-21T02:31:41.451Z,2.45
2018-05-21T02:34:08.892Z,4.65
2018-05-21T02:36:36.308Z,2.03
2018-05-21T02:39:03.716Z,3.95
2018-05-21T02:41:31.133Z,1.90
2018-05-21T02:43:58.535Z,2.72
2018-05-21T02:46:25.973Z,3.78
2018-05-21T02:48:53.420Z,3.92
2018-05-21T02:51:20.884Z,3.53
2018-05-21T02:53:48.288Z,3.65
2018-05-21T02:56:15.797Z,2.28
2018-05-21T02:58:43.196Z,4.15
2018-05-21T03:01:10.640Z,2.37
2018-05-21T03:03:38.041Z,3.90
2018-05-21T03:06:05.452Z,4.62
2018-05-21T03:08:32.870Z,2.70
2018-05-21T03:11:00.288Z,1.77
2018-05-21T03:13:27.769Z,1.60
2018-05-21T03:15:55.196Z,1.70
2018-05-21T03:18:22.707Z,2.75
2018-05-21T03:20:50.152Z,1.90
2018-05-21T03:23:17.568Z,9.13
2018-05-21T03:25:44.984Z,2.10
2018-05-21T03:28:12.396Z,1.87
2018-05-21T03:30:39.877Z,2.22
2018-05-21T03:33:07.326Z,2.12
2018-05-21T03:35:34.784Z,3.03
2018-05-21T03:38:02.200Z,2.28
2018-05-21T03:40:29.608Z,2.53
2018-05-21T03:42:57.028Z,1.87
2018-05-21T03:45:24.506Z,2.12
2018-05-21T03:47:52.029Z,3.83
2018-05-21T03:50:19.433Z,1.60
2018-05-21T03:52:46.876Z,1.60
2018-05-21T03:55:14.293Z,2.08
2018-05-21T03:57:41.701Z,2.55
2018-05-21T04:03:23.800Z,3.47
2018-05-21T04:05:51.212Z,3.45
2018-05-21T04:08:18.633Z,1.65
2018-05-21T04:10:46.046Z,2.80
2018-05-21T04:13:13.468Z,2.00
2018-05-21T04:15:40.876Z,1.95
2018-05-21T04:18:08.287Z,2.40
2018-05-21T04:20:35.697Z,1.70
2018-05-21T04:23:03.111Z,5.03
2018-05-21T04:25:30.600Z,1.70
2018-05-21T04:27:57.944Z,1.85
2018-05-21T04:30:25.352Z,2.15
2018-05-21T04:32:52.776Z,2.45
2018-05-21T04:35:20.257Z,3.03
2018-05-21T04:37:47.603Z,2.35
2018-05-21T04:40:15.109Z,3.25
2018-05-21T04:42:42.528Z,3.58
2018-05-21T04:45:10.027Z,4.15
2018-05-21T04:47:37.449Z,2.00
2018-05-21T04:50:04.937Z,6.55
2018-05-21T04:52:32.388Z,3.33
2018-05-21T04:54:59.802Z,2.35
2018-05-21T04:57:27.220Z,1.70
2018-05-21T04:59:54.632Z,5.40
2018-05-21T05:02:22.048Z,4.90
2018-05-21T05:04:49.568Z,1.90
2018-05-21T05:07:16.984Z,1.70
2018-05-21T05:09:44.391Z,3.45
2018-05-21T05:12:11.803Z,3.50
2018-05-21T05:14:39.214Z,4.32
2018-05-21T05:17:06.736Z,5.07
2018-05-21T05:19:34.144Z,1.92
2018-05-21T05:22:01.649Z,4.87
2018-05-21T05:24:29.052Z,3.03
2018-05-21T05:26:56.465Z,2.10
2018-05-21T05:29:23.880Z,2.75
2018-05-21T05:31:51.295Z,1.80
2018-05-21T05:34:18.716Z,3.55
2018-05-21T05:36:46.126Z,3.75
2018-05-21T05:39:13.549Z,1.50
2018-05-21T05:41:40.953Z,2.25
2018-05-21T05:44:08.372Z,2.40
2018-05-21T05:46:35.800Z,5.93
2018-05-21T05:49:03.216Z,2.22
2018-05-21T05:51:30.714Z,1.95
2018-05-21T05:53:58.129Z,3.35
2018-05-21T05:56:25.535Z,3.08
2018-05-21T05:58:52.957Z,2.53
2018-05-21T06:01:20.390Z,2.62
2018-05-21T06:03:47.879Z,3.22
2018-05-21T06:06:15.295Z,1.98
2018-05-21T06:08:42.718Z,6.05
2018-05-21T06:11:10.121Z,3.85
2018-05-21T06:13:37.615Z,2.92
2018-05-21T06:16:05.055Z,3.08
2018-05-21T06:18:32.519Z,3.15
2018-05-21T06:20:59.924Z,4.30
2018-05-21T06:23:27.339Z,3.22
2018-05-21T06:25:54.844Z,5.62
2018-05-21T06:28:22.172Z,3.47
2018-05-21T06:30:49.696Z,3.50
2018-05-21T06:33:17.112Z,2.35
2018-05-21T06:35:44.604Z,3.70
2018-05-21T06:38:12.025Z,5.07
2018-05-21T06:40:39.433Z,4.47
2018-05-21T06:43:06.869Z,5.25
2018-05-21T06:45:34.329Z,4.28
2018-05-21T06:48:01.744Z,7.00
2018-05-21T06:50:29.150Z,4.80
2018-05-21T06:52:56.576Z,3.28
2018-05-21T06:55:23.979Z,3.85
2018-05-21T06:57:51.397Z,5.22
2018-05-21T07:00:18.804Z,5.22
2018-05-21T07:02:46.214Z,5.82
2018-05-21T07:05:13.659Z,4.03
2018-05-21T07:07:41.081Z,13.55
2018-05-21T07:10:08.496Z,8.63
2018-05-21T07:12:35.953Z,5.65
2018-05-21T07:15:03.375Z,7.00
2018-05-21T07:17:30.780Z,9.43
2018-05-21T07:19:58.211Z,7.37
2018-05-21T07:22:25.614Z,9.07
2018-05-21T07:24:53.037Z,10.60
2018-05-21T07:27:20.452Z,8.63
2018-05-21T07:29:47.879Z,10.18
2018-05-21T07:32:15.362Z,9.30
2018-05-21T07:34:42.824Z,9.52
2018-05-21T07:37:10.240Z,12.75
2018-05-21T07:39:37.676Z,13.80
2018-05-21T07:42:05.084Z,9.30
2018-05-21T07:44:32.536Z,12.18
2018-05-21T07:46:59.952Z,13.48
2018-05-21T07:49:27.379Z,12.73
2018-05-21T07:51:54.803Z,24.25
2018-05-21T07:54:22.225Z,17.62
2018-05-21T07:56:49.637Z,11.05
2018-05-21T07:59:17.065Z,13.60
2018-05-21T08:01:44.488Z,13.57
2018-05-21T08:04:11.917Z,18.83
2018-05-21T08:06:39.341Z,16.83
2018-05-21T08:09:06.752Z,23.30
2018-05-21T08:11:34.176Z,19.55
2018-05-21T08:14:01.595Z,17.80
2018-05-21T08:16:29.009Z,31.15
2018-05-21T08:18:56.434Z,21.17
2018-05-21T08:21:23.845Z,19.12
2018-05-21T08:23:51.270Z,12.20
2018-05-21T08:26:18.685Z,25.15
2018-05-21T08:28:46.259Z,20.75
2018-05-21T08:31:13.547Z,25.90
2018-05-21T08:33:40.984Z,26.70
2018-05-21T08:36:08.400Z,28.60
2018-05-21T08:38:35.812Z,26.95
2018-05-21T08:41:03.241Z,30.90
2018-05-21T08:43:30.662Z,29.60
2018-05-21T08:45:58.075Z,22.75
2018-05-21T08:48:25.560Z,34.50
2018-05-21T08:50:52.961Z,30.20
2018-05-21T08:53:20.340Z,29.20
2018-05-21T08:55:47.764Z,42.90
2018-05-21T08:58:15.188Z,38.35
2018-05-21T09:00:42.621Z,24.48
2018-05-21T09:03:10.044Z,25.90
2018-05-21T09:05:37.465Z,17.45
2018-05-21T09:08:04.886Z,23.55
2018-05-21T09:10:32.304Z,26.35
2018-05-21T09:12:59.717Z,30.88
2018-05-21T09:15:27.156Z,32.88
2018-05-21T09:17:54.568Z,40.40
2018-05-21T09:20:22.021Z,42.92
2018-05-21T09:22:49.433Z,39.40
2018-05-21T09:25:16.855Z,30.00
2018-05-21T09:27:44.268Z,33.08
2018-05-21T09:30:11.697Z,37.80
2018-05-21T09:32:39.116Z,35.88
2018-05-21T09:35:06.537Z,25.62
2018-05-21T09:37:33.965Z,34.40
2018-05-21T09:40:01.393Z,28.38
2018-05-21T09:42:28.808Z,26.40
2018-05-21T09:44:56.233Z,32.25
2018-05-21T09:47:23.648Z,24.48
2018-05-21T09:49:51.081Z,41.50
2018-05-21T09:52:18.492Z,42.83
2018-05-21T09:54:45.923Z,40.95
2018-05-21T09:57:13.345Z,32.65
2018-05-21T09:59:40.779Z,39.15
2018-05-21T10:02:08.216Z,39.17
2018-05-21T10:04:35.669Z,33.33
2018-05-21T10:07:03.089Z,39.30
2018-05-21T10:09:30.533Z,43.85
2018-05-21T10:11:57.945Z,25.95
2018-05-21T10:14:25.384Z,32.50
2018-05-21T10:16:52.813Z,57.10
2018-05-21T10:19:20.305Z,46.40
2018-05-21T10:21:47.657Z,38.17
2018-05-21T10:24:15.073Z,59.53
2018-05-21T10:26:42.493Z,37.42
2018-05-21T10:29:09.920Z,40.28
2018-05-21T10:31:37.341Z,36.90
2018-05-21T10:34:04.760Z,44.10
2018-05-21T10:36:32.195Z,40.25
2018-05-21T10:38:59.601Z,37.50
2018-05-21T10:41:27.020Z,41.72
2018-05-21T10:43:54.561Z,46.25
2018-05-21T10:46:21.861Z,47.83
2018-05-21T10:48:49.281Z,47.97
2018-05-21T10:51:16.739Z,58.58
2018-05-21T10:53:44.123Z,65.82
2018-05-21T10:56:11.618Z,46.70
2018-05-21T10:58:38.976Z,49.53
2018-05-21T11:01:06.401Z,40.38
2018-05-21T11:03:33.833Z,54.50
2018-05-21T11:06:01.253Z,60.78
2018-05-21T11:08:28.668Z,48.35
2018-05-21T11:10:56.104Z,40.40
2018-05-21T11:13:23.526Z,40.65
2018-05-21T11:15:50.948Z,42.10
2018-05-21T11:18:18.368Z,31.48
2018-05-21T11:20:45.791Z,36.90
2018-05-21T11:23:13.216Z,51.05
2018-05-21T11:25:40.640Z,37.80
2018-05-21T11:28:08.055Z,45.95
2018-05-21T11:30:35.489Z,55.63
2018-05-21T11:33:02.917Z,44.10
2018-05-21T11:35:30.419Z,63.20
2018-05-21T11:37:57.781Z,54.25
2018-05-21T11:40:25.204Z,58.13
2018-05-21T11:42:52.630Z,53.58
2018-05-21T11:45:20.064Z,58.75
2018-05-21T11:47:47.481Z,55.00
2018-05-21T11:50:14.894Z,62.03
2018-05-21T11:52:42.330Z,45.63
2018-05-21T11:55:09.737Z,66.28
2018-05-21T11:57:37.197Z,57.30
2018-05-21T12:00:04.613Z,54.95
2018-05-21T12:02:32.335Z,45.33
2018-05-21T12:05:00.962Z,68.40
2018-05-21T12:07:29.468Z,70.07
2018-05-21T12:09:57.258Z,70.07
2018-05-21T12:12:24.926Z,59.45
2018-05-21T12:14:54.650Z,114.37
2018-05-21T12:17:22.377Z,78.00
2018-05-21T12:19:52.411Z,54.50
2018-05-21T12:22:20.085Z,69.32
2018-05-21T12:24:49.367Z,42.50
2018-05-21T12:27:18.386Z,64.03
2018-05-21T12:29:50.019Z,72.75
2018-05-21T12:32:17.440Z,52.20
2018-05-21T12:34:44.861Z,49.47
2018-05-21T12:37:12.283Z,50.63
2018-05-21T12:39:39.704Z,69.97
2018-05-21T12:42:07.137Z,65.95
2018-05-21T12:44:34.556Z,53.08
2018-05-21T12:47:01.978Z,63.92
2018-05-21T12:49:29.392Z,73.57
2018-05-21T12:51:56.824Z,87.15
2018-05-21T12:54:24.254Z,77.22
2018-05-21T12:56:51.682Z,64.65
2018-05-21T12:59:19.097Z,87.62
2018-05-21T13:01:46.520Z,85.65
2018-05-21T13:04:13.927Z,83.55
2018-05-21T13:06:41.360Z,34.33
2018-05-21T13:09:08.772Z,61.90
2018-05-21T13:11:36.200Z,51.33
2018-05-21T13:14:03.617Z,63.87
2018-05-21T13:16:31.045Z,55.97
2018-05-21T13:18:58.475Z,53.53
2018-05-21T13:21:25.905Z,65.03
2018-05-21T13:23:53.317Z,56.17
2018-05-21T13:26:20.740Z,45.42
2018-05-21T13:28:48.192Z,50.03
2018-05-21T13:31:15.620Z,57.95
2018-05-21T13:33:43.037Z,61.17
2018-05-21T13:36:10.459Z,57.62
2018-05-21T13:38:37.905Z,49.42
2018-05-21T13:41:05.316Z,68.55
2018-05-21T13:43:32.761Z,77.45
2018-05-21T13:46:00.177Z,38.20
2018-05-21T13:48:27.604Z,63.20
2018-05-21T13:50:55.027Z,82.95
2018-05-21T13:53:22.451Z,45.33
2018-05-21T13:55:49.877Z,58.17
2018-05-21T13:58:17.300Z,55.58
2018-05-21T14:00:44.716Z,55.60
2018-05-21T14:03:12.147Z,64.50
2018-05-21T14:05:39.574Z,69.10
2018-05-21T14:08:06.993Z,83.60
2018-05-21T14:10:34.421Z,65.97
2018-05-21T14:13:01.849Z,70.57
2018-05-21T14:15:29.263Z,67.53
2018-05-21T14:17:56.690Z,83.12
2018-05-21T14:20:24.153Z,71.95
2018-05-21T14:22:51.572Z,57.62
2018-05-21T14:25:19.116Z,65.50
2018-05-21T14:27:46.411Z,85.35
2018-05-21T14:30:13.821Z,71.05
2018-05-21T14:32:41.248Z,67.78
2018-05-21T14:35:08.677Z,87.65
2018-05-21T14:37:36.092Z,66.47
2018-05-21T14:40:03.593Z,65.72
2018-05-21T14:42:31.043Z,74.35
2018-05-21T14:44:58.460Z,62.85
2018-05-21T14:47:25.960Z,67.82
2018-05-21T14:49:53.379Z,73.30
2018-05-21T14:52:20.821Z,102.43
2018-05-21T14:54:48.327Z,71.30
2018-05-21T14:57:15.757Z,67.72
2018-05-21T14:59:43.240Z,53.58
2018-05-21T15:02:10.761Z,61.75
2018-05-21T15:04:38.103Z,61.08
2018-05-21T15:07:05.605Z,46.80
2018-05-21T15:09:33.064Z,57.72
2018-05-21T15:12:00.491Z,51.25
2018-05-21T15:14:27.964Z,76.30
2018-05-21T15:16:55.428Z,60.88
2018-05-21T15:19:22.889Z,51.28
2018-05-21T15:21:50.300Z,60.97
2018-05-21T15:24:17.728Z,63.47
2018-05-21T15:26:45.146Z,62.08
2018-05-21T15:29:12.596Z,62.40
2018-05-21T15:31:40.010Z,46.80
2018-05-21T15:34:07.429Z,43.35
2018-05-21T15:36:34.853Z,51.42
2018-05-21T15:39:02.281Z,55.67
2018-05-21T15:41:29.696Z,42.85
2018-05-21T15:43:57.120Z,47.80
2018-05-21T15:46:24.534Z,47.08
2018-05-21T15:48:52.075Z,44.03
2018-05-21T15:51:19.600Z,42.17
2018-05-21T15:53:47.056Z,50.72
2018-05-21T15:56:14.476Z,47.97
2018-05-21T15:58:41.964Z,46.83
2018-05-21T16:01:09.377Z,33.92
2018-05-21T16:03:36.873Z,39.45
2018-05-21T16:06:04.385Z,39.33
2018-05-21T16:08:31.965Z,36.42
2018-05-21T16:10:59.313Z,25.35
2018-05-21T16:13:26.812Z,43.25
2018-05-21T16:15:54.869Z,35.88
2018-05-21T16:18:22.285Z,47.13
2018-05-21T16:20:49.805Z,38.65
2018-05-21T16:23:17.274Z,28.73
2018-05-21T16:25:44.689Z,39.47
2018-05-21T16:28:12.106Z,36.20
2018-05-21T16:30:39.520Z,45.47
2018-05-21T16:33:06.951Z,32.70
2018-05-21T16:35:34.494Z,41.97
2018-05-21T16:38:01.841Z,47.28
2018-05-21T16:40:29.253Z,31.90
2018-05-21T16:42:56.681Z,29.63
2018-05-21T16:45:24.097Z,36.92
2018-05-21T16:47:51.521Z,42.45
2018-05-21T16:50:18.937Z,44.03
2018-05-21T16:52:46.356Z,40.83
2018-05-21T16:55:13.780Z,28.23
2018-05-21T16:57:41.197Z,37.97
2018-05-21T17:00:08.684Z,25.02
2018-05-21T17:02:36.040Z,35.00
2018-05-21T17:05:03.476Z,34.17
2018-05-21T17:07:30.895Z,34.13
2018-05-21T17:09:58.317Z,28.48
2018-05-21T17:12:25.756Z,27.23
2018-05-21T17:14:53.196Z,22.98
2018-05-21T17:17:20.624Z,35.22
2018-05-21T17:19:48.041Z,26.85
2018-05-21T17:22:15.500Z,29.70
2018-05-21T17:27:16.812Z,24.90
2018-05-21T17:29:44.247Z,19.40
2018-05-21T17:32:11.664Z,38.63
2018-05-21T17:34:39.088Z,34.90
2018-05-21T17:37:06.549Z,21.10
2018-05-21T17:40:10.285Z,22.35
2018-05-21T17:42:58.006Z,24.02
2018-05-21T17:45:25.449Z,30.25
2018-05-21T17:47:52.934Z,29.63
2018-05-21T17:50:20.442Z,30.15
2018-05-21T17:52:47.870Z,25.17
2018-05-21T17:55:15.301Z,31.05
2018-05-21T17:57:42.761Z,15.70
2018-05-21T18:00:10.138Z,19.23
2018-05-21T18:02:37.549Z,15.93
2018-05-21T18:05:04.988Z,25.12
2018-05-21T18:07:32.396Z,20.12
2018-05-21T18:09:59.822Z,22.05
2018-05-21T18:12:27.240Z,22.00
2018-05-21T18:14:54.695Z,27.92
2018-05-21T18:17:22.115Z,43.60
2018-05-21T18:19:49.617Z,24.27
2018-05-21T18:22:17.035Z,38.40
2018-05-21T18:24:44.508Z,27.37
2018-05-21T18:27:11.932Z,24.92
2018-05-21T18:29:39.433Z,36.05
2018-05-21T18:32:06.844Z,30.98
2018-05-21T18:34:34.284Z,36.22
2018-05-21T18:37:01.799Z,21.40
2018-05-21T18:39:29.247Z,25.85
2018-05-21T18:41:56.652Z,25.35
2018-05-21T18:44:24.075Z,19.27
2018-05-21T18:46:51.509Z,23.42
2018-05-21T18:49:18.943Z,28.58
2018-05-21T18:51:46.357Z,21.27
2018-05-21T18:54:13.793Z,29.10
2018-05-21T18:56:41.228Z,20.52
2018-05-21T18:59:08.665Z,24.08
2018-05-21T19:01:36.089Z,22.00
2018-05-21T19:04:03.556Z,24.92
2018-05-21T19:06:30.980Z,24.55
2018-05-21T19:08:58.397Z,19.25
2018-05-21T19:11:25.815Z,15.25
2018-05-21T19:13:53.237Z,15.38
2018-05-21T19:16:20.663Z,20.40
2018-05-21T19:18:48.085Z,23.90
2018-05-21T19:21:15.579Z,32.35
2018-05-21T19:23:43.044Z,19.12
2018-05-21T19:26:10.460Z,20.60
2018-05-21T19:28:37.950Z,14.50
2018-05-21T19:31:05.452Z,20.50
2018-05-21T19:33:32.828Z,19.35
2018-05-21T19:36:00.257Z,22.37
2018-05-21T19:38:27.784Z,13.55
2018-05-21T19:40:55.232Z,31.98
2018-05-21T19:43:22.945Z,26.77
2018-05-21T19:45:50.356Z,24.50
2018-05-21T19:48:17.795Z,25.60
2018-05-21T19:50:45.477Z,20.73
2018-05-21T19:53:13.141Z,28.12
2018-05-21T19:55:40.570Z,24.10
2018-05-21T19:58:07.983Z,15.60
2018-05-21T20:00:35.494Z,11.60
2018-05-21T20:03:02.941Z,14.63
2018-05-21T20:05:30.353Z,15.63
2018-05-21T20:07:57.849Z,13.50
2018-05-21T20:10:25.272Z,11.68
2018-05-21T20:12:52.760Z,13.45
2018-05-21T20:15:20.188Z,12.00
2018-05-21T20:17:47.681Z,10.82
2018-05-21T20:20:15.104Z,10.40
2018-05-21T20:22:42.587Z,11.82
2018-05-21T20:25:10.021Z,13.02
2018-05-21T20:27:37.428Z,10.05
2018-05-21T20:30:04.949Z,6.57
2018-05-21T20:32:32.357Z,8.10
2018-05-21T20:34:59.868Z,11.27
2018-05-21T20:37:27.292Z,13.10
2018-05-21T20:39:54.725Z,11.02
2018-05-21T20:42:22.161Z,9.57
2018-05-21T20:44:49.579Z,15.15
2018-05-21T20:47:17.049Z,9.05
2018-05-21T20:49:44.448Z,8.75
2018-05-21T20:52:11.862Z,6.85
2018-05-21T20:54:39.280Z,11.65
2018-05-21T20:57:06.713Z,13.10
2018-05-21T20:59:34.213Z,7.37
2018-05-21T21:02:01.636Z,7.28
2018-05-21T21:04:29.042Z,4.43
2018-05-21T21:06:56.461Z,7.35
2018-05-21T21:09:23.880Z,7.57
2018-05-21T21:11:51.304Z,3.92
2018-05-21T21:14:18.712Z,5.80
2018-05-21T21:16:46.119Z,5.72
2018-05-21T21:19:13.553Z,6.50
2018-05-21T21:21:41.009Z,9.98
2018-05-21T21:24:08.412Z,6.20
2018-05-21T21:26:35.841Z,12.27
2018-05-21T21:29:03.273Z,5.15
2018-05-21T21:31:30.724Z,7.30
2018-05-21T21:33:58.134Z,8.55
2018-05-21T21:36:25.564Z,8.25
2018-05-21T21:38:52.988Z,10.48
2018-05-21T21:41:20.445Z,9.00
2018-05-21T21:43:47.859Z,8.02
2018-05-21T21:46:15.272Z,4.47
2018-05-21T21:48:42.709Z,5.60
2018-05-21T21:51:10.723Z,8.25
2018-05-21T21:53:38.125Z,5.40
2018-05-21T21:56:05.589Z,5.45
2018-05-21T21:58:32.994Z,6.72
2018-05-21T22:01:00.439Z,7.72
2018-05-21T22:03:27.840Z,7.15
2018-05-21T22:05:55.260Z,5.10
2018-05-21T22:08:22.768Z,3.50
2018-05-21T22:10:50.228Z,5.35
2018-05-21T22:13:17.641Z,6.65
2018-05-21T22:15:45.061Z,8.93
2018-05-21T22:18:12.472Z,5.20
2018-05-21T22:20:39.880Z,5.47
2018-05-21T22:23:07.296Z,7.40
2018-05-21T22:25:34.756Z,6.05
2018-05-21T22:28:02.185Z,7.97
2018-05-21T22:30:29.585Z,5.62
2018-05-21T22:32:57.020Z,6.10
2018-05-21T22:35:24.482Z,4.55
2018-05-21T22:37:51.935Z,4.43
2018-05-21T22:40:19.352Z,4.87
2018-05-21T22:42:46.765Z,8.57
2018-05-21T22:45:14.195Z,6.70
2018-05-21T22:47:41.643Z,6.30
2018-05-21T22:50:09.051Z,6.85
2018-05-21T22:52:36.477Z,5.43
2018-05-21T22:55:03.889Z,2.97
2018-05-21T22:57:31.373Z,5.05
2018-05-21T22:59:58.776Z,4.10
2018-05-21T23:02:26.191Z,3.67
2018-05-21T23:04:53.610Z,3.47
2018-05-21T23:07:21.022Z,3.80
2018-05-21T23:09:48.540Z,5.53
2018-05-21T23:12:15.997Z,8.32
2018-05-21T23:14:43.403Z,5.05
2018-05-21T23:17:10.833Z,13.32
2018-05-21T23:19:38.232Z,3.05
2018-05-21T23:22:05.651Z,4.57
2018-05-21T23:24:33.072Z,5.18
2018-05-21T23:27:00.528Z,4.60
2018-05-21T23:29:27.941Z,3.40
2018-05-21T23:31:55.382Z,5.78
2018-05-21T23:34:22.786Z,5.80
2018-05-21T23:36:50.205Z,4.70
2018-05-21T23:39:17.608Z,3.87
2018-05-21T23:41:45.056Z,3.80
2018-05-21T23:44:12.465Z,2.70
2018-05-21T23:46:39.886Z,3.67
2018-05-21T23:49:07.320Z,3.42
2018-05-21T23:51:34.737Z,4.72
2018-05-21T23:54:02.144Z,2.97
2018-05-21T23:56:29.553Z,9.02
2018-05-21T23:58:56.969Z,5.65
